Time;durP1;ratioP1;P1;durP2;ratioP2;P2;SDS_P1;SDS_P2;PMS_P1;PMS_P2;Temp;Humidity;BMP_temperature;BMP_pressure;BME280_temperature;BME280_humidity;BME280_pressure;Samples;Min_cycle;Max_cycle;Signal;HPM_P1;HPM_P2
2021/11/22 00:01:52;;;;;;;22.60;14.30;;;;;;;6.45;80.96;99644.04;103430;1314;108911;-64
2021/11/22 00:04:25;;;;;;;26.30;14.00;;;;;;;6.48;81.05;99647.10;103196;1316;109134;-64
2021/11/22 00:06:58;;;;;;;26.30;14.90;;;;;;;6.45;80.75;99650.77;104114;1317;137982;-64
2021/11/22 00:09:33;;;;;;;25.20;15.20;;;;;;;6.44;80.90;99656.33;103030;1316;302852;-64
2021/11/22 00:12:07;;;;;;;23.70;15.50;;;;;;;6.42;81.10;99655.17;103161;1315;138023;-63
2021/11/22 00:14:39;;;;;;;22.70;14.90;;;;;;;6.41;81.08;99655.55;103785;1317;106742;-65
2021/11/22 00:17:12;;;;;;;24.40;14.70;;;;;;;6.39;81.16;99656.64;103198;1314;109287;-65
2021/11/22 00:19:45;;;;;;;22.60;14.40;;;;;;;6.39;81.06;99658.71;103057;1320;140178;-63
2021/11/22 00:22:18;;;;;;;25.60;14.50;;;;;;;6.41;81.14;99663.14;104542;1316;96074;-64
2021/11/22 00:24:50;;;;;;;26.50;15.20;;;;;;;6.42;81.14;99667.09;104455;1317;138245;-65
2021/11/22 00:27:22;;;;;;;26.00;15.20;;;;;;;6.42;81.19;99666.91;104576;1316;107647;-64
2021/11/22 00:29:54;;;;;;;25.30;15.40;;;;;;;6.42;81.13;99666.40;104058;1317;138369;-64
2021/11/22 00:32:39;;;;;;;22.90;14.90;;;;;;;6.36;80.78;99670.52;104540;1315;96645;-65
2021/11/22 00:35:33;;;;;;;25.40;14.70;;;;;;;6.30;80.91;99668.42;104374;1317;140843;-64
2021/11/22 00:38:07;;;;;;;25.80;15.30;;;;;;;6.25;80.93;99669.22;104550;1316;111756;-64
2021/11/22 00:40:39;;;;;;;23.60;14.40;;;;;;;6.26;81.26;99670.55;104560;1316;109340;-65
2021/11/22 00:43:12;;;;;;;22.30;13.70;;;;;;;6.29;81.17;99676.73;104453;1314;137661;-65
2021/11/22 00:45:44;;;;;;;23.70;13.60;;;;;;;6.33;81.31;99681.14;104614;1314;95776;-64
2021/11/22 00:48:20;;;;;;;24.10;13.70;;;;;;;6.39;81.32;99684.07;104494;1317;138053;-64
2021/11/22 00:50:53;;;;;;;22.60;14.30;;;;;;;6.46;81.39;99684.96;104063;1316;112464;-64
2021/11/22 00:53:28;;;;;;;28.40;15.00;;;;;;;6.50;81.20;99682.78;103091;1314;138397;-64
2021/11/22 00:56:01;;;;;;;28.50;16.30;;;;;;;6.51;80.94;99687.26;103165;1316;109735;-63
2021/11/22 00:58:33;;;;;;;25.00;14.70;;;;;;;6.50;80.83;99689.86;104572;1315;96218;-65
2021/11/22 01:01:05;;;;;;;25.20;14.60;;;;;;;6.45;80.57;99689.45;103955;1315;137348;-64
2021/11/22 01:03:38;;;;;;;23.50;13.40;;;;;;;6.45;80.75;99688.77;104591;1317;111524;-64
2021/11/22 01:06:10;;;;;;;24.10;13.40;;;;;;;6.45;80.65;99690.14;104388;1315;139094;-64
2021/11/22 01:08:42;;;;;;;23.90;13.50;;;;;;;6.46;80.66;99692.02;104552;1314;108882;-64
2021/11/22 01:11:14;;;;;;;22.40;14.50;;;;;;;6.44;80.56;99697.27;104592;1313;96201;-64
2021/11/22 01:13:46;;;;;;;23.60;14.60;;;;;;;6.45;80.66;99699.13;103443;1319;137296;-64
2021/11/22 01:16:18;;;;;;;23.10;14.60;;;;;;;6.46;80.62;99707.73;104596;1313;112551;-64
2021/11/22 01:18:53;;;;;;;22.70;14.00;;;;;;;6.46;80.70;99703.77;103561;1315;138580;-64
2021/11/22 01:21:26;;;;;;;24.00;14.20;;;;;;;6.42;80.48;99709.92;103160;1314;108933;-63
2021/11/22 01:23:59;;;;;;;26.70;14.70;;;;;;;6.39;80.33;99716.73;103038;1317;138775;-64
2021/11/22 01:26:31;;;;;;;22.60;13.60;;;;;;;6.34;80.60;99716.83;103211;1317;96686;-64
2021/11/22 01:29:03;;;;;;;24.50;14.10;;;;;;;6.33;80.50;99720.83;103191;1316;112128;-64
2021/11/22 01:31:35;;;;;;;23.90;13.20;;;;;;;6.31;80.71;99723.99;103078;1315;138392;-64
2021/11/22 01:34:08;;;;;;;21.30;13.70;;;;;;;6.34;80.59;99728.41;103185;1315;108880;-64
2021/11/22 01:36:40;;;;;;;23.90;14.40;;;;;;;6.33;80.55;99728.45;103465;1314;138558;-64
2021/11/22 01:39:13;;;;;;;26.80;14.80;;;;;;;6.27;80.51;99728.91;103217;1316;97956;-64
2021/11/22 01:41:45;;;;;;;25.50;14.70;;;;;;;6.26;80.67;99729.45;104464;1316;138429;-64
2021/11/22 01:44:18;;;;;;;23.40;14.70;;;;;;;6.25;80.82;99728.77;104566;1314;109037;-64
2021/11/22 01:46:50;;;;;;;26.40;15.30;;;;;;;6.28;80.91;99732.35;103307;1314;109974;-64
2021/11/22 01:49:23;;;;;;;23.40;13.80;;;;;;;6.26;80.78;99737.55;103077;1313;138612;-64
2021/11/22 01:51:55;;;;;;;24.40;14.70;;;;;;;6.26;80.75;99742.05;103200;1320;97834;-63
2021/11/22 01:54:28;;;;;;;23.40;15.10;;;;;;;6.28;80.76;99741.32;103776;1316;137906;-64
2021/11/22 01:57:01;;;;;;;24.00;15.10;;;;;;;6.30;80.91;99741.45;103199;1315;109284;-64
2021/11/22 01:59:34;;;;;;;24.20;14.90;;;;;;;6.33;80.89;99739.32;103216;1317;139047;-64
2021/11/22 02:02:09;;;;;;;23.40;15.30;;;;;;;6.30;80.59;99740.77;103233;1316;98367;-65
2021/11/22 02:04:43;;;;;;;21.70;15.40;;;;;;;6.25;80.50;99741.57;103400;1317;97869;-64
2021/11/22 02:07:16;;;;;;;25.10;14.20;;;;;;;6.18;80.68;99742.92;103111;1317;139960;-64
2021/11/22 02:09:50;;;;;;;22.90;14.50;;;;;;;6.21;80.85;99744.42;103333;1314;109022;-65
2021/11/22 02:12:22;;;;;;;22.50;14.30;;;;;;;6.22;80.89;99748.02;103113;1320;138774;-64
2021/11/22 02:14:55;;;;;;;22.90;13.90;;;;;;;6.25;80.90;99750.02;103253;1317;97876;-64
2021/11/22 02:17:27;;;;;;;23.60;14.10;;;;;;;6.32;81.14;99749.19;103122;1317;138228;-65
2021/11/22 02:20:03;;;;;;;23.40;14.60;;;;;;;6.38;80.97;99748.85;103278;1314;111418;-64
2021/11/22 02:22:36;;;;;;;24.50;14.80;;;;;;;6.41;81.01;99749.64;103214;1315;109219;-64
2021/11/22 02:25:10;;;;;;;26.60;14.70;;;;;;;6.42;80.78;99753.77;103131;1314;138098;-64
2021/11/22 02:27:43;;;;;;;26.40;14.60;;;;;;;6.39;80.32;99755.59;104519;1315;96143;-64
2021/11/22 02:30:18;;;;;;;23.10;15.00;;;;;;;6.33;80.39;99757.63;103847;1317;137910;-64
2021/11/22 02:32:50;;;;;;;22.70;14.00;;;;;;;6.30;80.46;99760.11;103458;1314;112791;-64
2021/11/22 02:35:23;;;;;;;22.90;13.70;;;;;;;6.26;80.43;99761.55;103208;1316;108945;-64
2021/11/22 02:37:55;;;;;;;25.20;14.10;;;;;;;6.26;80.71;99763.97;104421;1316;138513;-64
2021/11/22 02:40:28;;;;;;;20.60;13.30;;;;;;;6.33;80.73;99770.58;103783;1317;96588;-65
2021/11/22 02:43:01;;;;;;;23.60;13.80;;;;;;;6.35;80.51;99769.83;104464;1314;138065;-65
2021/11/22 02:45:33;;;;;;;22.20;14.10;;;;;;;6.36;80.37;99768.95;104538;1316;112537;-65
2021/11/22 02:48:06;;;;;;;25.80;15.30;;;;;;;6.36;80.56;99766.70;104335;1315;139180;-65
2021/11/22 02:50:39;;;;;;;24.50;15.00;;;;;;;6.45;80.63;99762.34;104534;1316;107914;-65
2021/11/22 02:53:11;;;;;;;22.70;14.40;;;;;;;6.47;80.28;99763.17;103911;1317;96223;-66
2021/11/22 02:55:45;;;;;;;23.20;14.00;;;;;;;6.46;80.17;99770.26;104462;1314;138406;-63
2021/11/22 02:58:21;;;;;;;23.50;13.30;;;;;;;6.48;80.30;99770.77;104528;1315;111403;-63
2021/11/22 03:00:54;;;;;;;19.40;12.70;;;;;;;6.51;80.21;99777.39;104071;1316;138983;-64
2021/11/22 03:03:31;;;;;;;24.40;14.00;;;;;;;6.56;79.82;99774.70;104495;1316;112022;-63
2021/11/22 03:06:09;;;;;;;21.20;13.30;;;;;;;6.53;79.63;99784.95;103401;1317;138809;-65
2021/11/22 03:08:44;;;;;;;23.00;14.00;;;;;;;6.50;79.67;99794.88;103295;1320;98072;-65
2021/11/22 03:11:18;;;;;;;23.20;14.00;;;;;;;6.47;79.54;99798.58;103697;1317;111094;-65
2021/11/22 03:13:51;;;;;;;24.30;13.90;;;;;;;6.42;79.70;99808.33;104417;1316;138483;-65
2021/11/22 03:16:24;;;;;;;24.30;14.50;;;;;;;6.35;79.85;99813.32;104508;1316;108843;-64
2021/11/22 03:18:57;;;;;;;23.60;14.10;;;;;;;6.33;79.94;99813.04;104450;1314;139840;-63
2021/11/22 03:21:29;;;;;;;23.30;14.20;;;;;;;6.34;80.03;99813.20;104483;1315;96242;-63
2021/11/22 03:24:01;;;;;;;24.50;14.20;;;;;;;6.34;80.00;99816.98;104409;1314;139085;-65
2021/11/22 03:26:33;;;;;;;23.10;14.60;;;;;;;6.34;79.92;99819.05;103192;1316;108986;-65
2021/11/22 03:29:06;;;;;;;25.50;15.20;;;;;;;6.33;79.92;99821.84;103203;1316;108256;-65
2021/11/22 03:31:39;;;;;;;27.50;17.00;;;;;;;6.32;80.04;99822.55;103125;1314;138167;-64
2021/11/22 03:34:13;;;;;;;25.60;17.00;;;;;;;6.31;80.15;99827.08;103291;1314;98395;-65
2021/11/22 03:36:46;;;;;;;27.90;17.30;;;;;;;6.30;80.00;99826.05;103080;1314;137904;-65
2021/11/22 03:39:22;;;;;;;26.80;15.90;;;;;;;6.28;80.20;99830.23;103900;1315;109220;-64
2021/11/22 03:41:57;;;;;;;26.20;16.30;;;;;;;6.27;80.16;99834.56;103239;1315;139078;-64
2021/11/22 03:44:31;;;;;;;27.70;15.60;;;;;;;6.26;80.04;99842.52;103208;1316;97919;-64
2021/11/22 03:47:03;;;;;;;24.80;15.10;;;;;;;6.25;80.13;99844.27;103170;1315;97979;-65
2021/11/22 03:49:36;;;;;;;28.20;15.60;;;;;;;6.23;80.08;99843.80;103055;1313;138343;-64
2021/11/22 03:52:10;;;;;;;23.50;15.60;;;;;;;6.25;80.32;99844.96;103266;1313;109345;-64
2021/11/22 03:54:42;;;;;;;24.70;15.40;;;;;;;6.28;80.22;99850.95;104013;1317;137894;-65
2021/11/22 03:57:15;;;;;;;24.20;16.60;;;;;;;6.27;80.21;99859.08;103556;1317;96174;-65
2021/11/22 03:59:48;;;;;;;24.70;16.40;;;;;;;6.26;80.23;99864.62;103913;1316;141134;-64
2021/11/22 04:02:20;;;;;;;25.20;16.00;;;;;;;6.25;80.27;99865.33;104546;1305;112708;-65
2021/11/22 04:04:52;;;;;;;25.60;15.30;;;;;;;6.26;80.49;99863.95;103353;1317;110183;-64
2021/11/22 04:07:25;;;;;;;22.30;14.60;;;;;;;6.32;80.49;99869.52;103083;1314;138745;-64
2021/11/22 04:09:57;;;;;;;21.60;13.90;;;;;;;6.40;80.53;99864.86;103229;1317;97840;-64
2021/11/22 04:12:30;;;;;;;21.80;14.90;;;;;;;6.47;80.32;99868.35;103122;1314;139742;-64
2021/11/22 04:15:02;;;;;;;26.80;15.60;;;;;;;6.51;80.40;99874.12;103243;1315;111438;-64
2021/11/22 04:17:34;;;;;;;25.60;15.30;;;;;;;6.56;80.11;99874.55;103184;1314;138593;-65
2021/11/22 04:20:08;;;;;;;27.20;15.90;;;;;;;6.55;80.06;99882.66;103136;1317;109091;-64
2021/11/22 04:22:40;;;;;;;27.50;17.80;;;;;;;6.57;80.02;99882.80;103832;1314;96132;-65
2021/11/22 04:25:13;;;;;;;25.10;16.50;;;;;;;6.55;79.87;99886.30;103577;1317;137685;-65
2021/11/22 04:27:46;;;;;;;24.90;14.60;;;;;;;6.49;79.73;99889.20;103574;1313;112023;-65
2021/11/22 04:30:19;;;;;;;21.50;14.10;;;;;;;6.47;79.96;99893.21;103131;1314;138703;-66
2021/11/22 04:32:51;;;;;;;18.20;13.20;;;;;;;6.47;79.84;99894.26;103145;1313;107927;-65
2021/11/22 04:35:24;;;;;;;21.90;11.90;;;;;;;6.45;79.62;99895.83;103164;1315;97869;-65
2021/11/22 04:37:56;;;;;;;17.80;12.40;;;;;;;6.46;79.63;99899.95;104375;1316;138438;-64
2021/11/22 04:40:29;;;;;;;22.00;13.00;;;;;;;6.47;79.50;99901.15;104476;1316;112552;-64
2021/11/22 04:43:02;;;;;;;16.60;12.40;;;;;;;6.46;79.46;99904.11;103183;1316;138038;-65
2021/11/22 04:45:34;;;;;;;18.90;12.00;;;;;;;6.44;79.50;99912.26;103266;1316;109126;-64
2021/11/22 04:48:08;;;;;;;18.70;13.00;;;;;;;6.44;79.38;99914.15;104443;1313;138204;-64
2021/11/22 04:50:40;;;;;;;20.40;13.20;;;;;;;6.43;79.41;99913.84;104565;1314;96135;-63
2021/11/22 04:53:13;;;;;;;16.20;11.30;;;;;;;6.41;79.15;99916.81;103749;1314;112402;-63
2021/11/22 04:55:45;;;;;;;16.50;11.60;;;;;;;6.34;78.99;99920.42;103071;1314;138726;-63
2021/11/22 04:58:17;;;;;;;18.10;10.90;;;;;;;6.26;79.14;99920.91;103123;1316;107996;-63
2021/11/22 05:00:50;;;;;;;18.80;11.70;;;;;;;6.27;79.31;99923.30;103089;1317;138255;-63
2021/11/22 05:03:22;;;;;;;17.10;11.70;;;;;;;6.28;79.32;99923.98;103934;1316;98334;-63
2021/11/22 05:05:56;;;;;;;19.30;12.50;;;;;;;6.30;79.34;99928.11;103086;1317;137979;-64
2021/11/22 05:08:28;;;;;;;18.30;13.00;;;;;;;6.37;79.54;99931.92;103874;1316;108433;-64
2021/11/22 05:11:00;;;;;;;18.00;12.20;;;;;;;6.39;79.42;99930.67;104137;1316;109013;-64
2021/11/22 05:13:32;;;;;;;19.20;12.50;;;;;;;6.37;79.26;99933.67;103031;1316;137929;-63
2021/11/22 05:16:05;;;;;;;19.90;11.50;;;;;;;6.35;79.16;99941.11;103098;1317;97969;-64
2021/11/22 05:18:37;;;;;;;17.90;11.90;;;;;;;6.32;79.22;99946.54;104331;1316;138921;-64
2021/11/22 05:21:09;;;;;;;16.40;11.40;;;;;;;6.30;79.10;99948.83;103628;1316;109054;-64
2021/11/22 05:23:42;;;;;;;16.60;11.20;;;;;;;6.29;79.19;99953.85;103008;1316;140097;-64
2021/11/22 05:26:14;;;;;;;20.80;11.30;;;;;;;6.31;79.17;99959.69;103065;1317;97871;-64
2021/11/22 05:28:47;;;;;;;19.40;11.70;;;;;;;6.28;79.05;99962.32;104501;1317;95670;-64
2021/11/22 05:31:19;;;;;;;20.30;12.10;;;;;;;6.22;78.97;99965.36;104236;1317;137643;-64
2021/11/22 05:33:52;;;;;;;19.80;11.80;;;;;;;6.20;79.23;99967.99;103997;1317;108053;-64
2021/11/22 05:36:24;;;;;;;20.80;13.20;;;;;;;6.19;79.31;99969.05;103955;1315;138007;-64
2021/11/22 05:38:57;;;;;;;19.30;13.00;;;;;;;6.18;79.27;99969.60;103164;1316;97986;-63
2021/11/22 05:41:29;;;;;;;17.40;11.80;;;;;;;6.18;79.25;99971.66;103134;1317;97878;-63
2021/11/22 05:44:02;;;;;;;16.20;12.00;;;;;;;6.15;79.09;99972.60;103174;1317;138609;-64
2021/11/22 05:46:34;;;;;;;17.60;11.60;;;;;;;6.12;79.27;99980.92;103106;1316;109114;-64
2021/11/22 05:49:07;;;;;;;19.40;12.60;;;;;;;6.15;79.32;99980.88;103002;1317;138964;-64
2021/11/22 05:51:40;;;;;;;19.60;12.00;;;;;;;6.15;79.35;99982.95;103094;1317;97897;-63
2021/11/22 05:54:13;;;;;;;19.40;12.70;;;;;;;6.13;79.36;99984.89;103102;1315;138012;-64
2021/11/22 05:56:46;;;;;;;21.30;12.80;;;;;;;6.11;79.40;99990.27;103078;1317;113773;-64
2021/11/22 05:59:19;;;;;;;19.80;13.30;;;;;;;6.15;79.47;99995.73;103124;1318;108737;-63
2021/11/22 06:01:51;;;;;;;19.00;12.90;;;;;;;6.14;79.19;99999.54;103037;1314;137989;-63
2021/11/22 06:04:24;;;;;;;19.70;11.30;;;;;;;6.08;79.15;100001.01;104115;1318;95733;-64
2021/11/22 06:06:56;;;;;;;18.00;11.90;;;;;;;6.07;79.35;100002.05;104196;1315;139055;-64
2021/11/22 06:09:29;;;;;;;17.00;11.00;;;;;;;6.07;79.57;100000.85;103338;1316;112562;-64
2021/11/22 06:12:02;;;;;;;19.00;10.60;;;;;;;6.13;79.49;100000.59;102955;1317;138551;-64
2021/11/22 06:14:34;;;;;;;19.00;11.80;;;;;;;6.17;79.57;100005.86;103496;1317;109107;-65
2021/11/22 06:17:07;;;;;;;19.90;12.90;;;;;;;6.21;79.45;100011.99;104338;1316;96236;-65
2021/11/22 06:19:43;;;;;;;21.00;12.10;;;;;;;6.28;79.59;100013.95;103351;1317;137916;-64
2021/11/22 06:22:15;;;;;;;18.90;11.50;;;;;;;6.33;79.33;100021.64;103456;1317;112719;-64
2021/11/22 06:24:47;;;;;;;15.80;11.40;;;;;;;6.33;79.28;100025.59;103086;1315;138389;-63
2021/11/22 06:27:20;;;;;;;19.00;12.20;;;;;;;6.32;79.03;100023.05;102986;1314;108534;-64
2021/11/22 06:29:54;;;;;;;17.30;11.10;;;;;;;6.32;78.93;100028.39;103670;1315;138990;-68
2021/11/22 06:32:27;;;;;;;20.00;12.20;;;;;;;6.31;79.00;100034.10;103757;1317;97301;-64
2021/11/22 06:35:00;;;;;;;16.60;10.80;;;;;;;6.35;79.04;100032.47;104484;1317;112649;-65
2021/11/22 06:37:34;;;;;;;19.10;11.40;;;;;;;6.38;78.68;100035.36;104360;1316;137976;-65
2021/11/22 06:40:09;;;;;;;16.80;11.40;;;;;;;6.37;78.58;100040.38;104197;1316;108512;-65
2021/11/22 06:42:41;;;;;;;18.40;11.20;;;;;;;6.38;78.60;100045.36;104231;1317;138282;-65
2021/11/22 06:45:14;;;;;;;16.90;11.20;;;;;;;6.42;78.58;100048.73;103278;1316;99471;-64
2021/11/22 06:47:47;;;;;;;18.90;12.00;;;;;;;6.42;78.41;100054.60;103440;1318;138567;-65
2021/11/22 06:50:20;;;;;;;17.90;11.70;;;;;;;6.45;78.70;100053.68;104374;1316;109567;-64
2021/11/22 06:52:52;;;;;;;17.40;11.00;;;;;;;6.51;78.83;100051.86;104372;1317;108890;-65
2021/11/22 06:55:24;;;;;;;16.60;10.70;;;;;;;6.56;78.55;100059.17;104272;1315;138726;-65
2021/11/22 06:57:57;;;;;;;18.70;11.50;;;;;;;6.58;78.49;100063.64;104175;1316;96343;-65
2021/11/22 07:00:29;;;;;;;19.00;10.50;;;;;;;6.64;78.60;100063.70;103093;1318;138115;-65
2021/11/22 07:03:02;;;;;;;18.00;11.40;;;;;;;6.69;78.48;100065.52;103284;1318;107983;-64
2021/11/22 07:05:39;;;;;;;15.70;10.70;;;;;;;6.75;78.58;100069.20;103525;1314;107801;-65
2021/11/22 07:08:11;;;;;;;16.50;9.40;;;;;;;6.76;78.21;100072.96;103063;1324;138171;-65
2021/11/22 07:10:44;;;;;;;14.10;9.70;;;;;;;6.73;77.77;100077.36;104092;1316;95790;-64
2021/11/22 07:13:16;;;;;;;18.00;11.00;;;;;;;6.70;77.87;100080.70;103005;1320;138063;-65
2021/11/22 07:15:49;;;;;;;16.10;10.30;;;;;;;6.67;77.91;100081.63;104377;1314;108866;-65
2021/11/22 07:18:21;;;;;;;18.20;9.20;;;;;;;6.66;77.90;100088.38;104274;1316;139187;-65
2021/11/22 07:20:53;;;;;;;17.50;11.20;;;;;;;6.72;78.07;100094.84;104458;1314;96188;-65
2021/11/22 07:23:26;;;;;;;16.60;10.40;;;;;;;6.79;78.02;100094.67;104417;1316;96646;-65
2021/11/22 07:25:59;;;;;;;17.90;9.80;;;;;;;6.88;78.09;100098.84;104306;1317;138262;-65
2021/11/22 07:28:32;;;;;;;15.30;11.20;;;;;;;6.89;77.76;100095.55;104110;1316;108039;-65
2021/11/22 07:31:04;;;;;;;17.70;10.10;;;;;;;6.89;77.72;100093.47;104285;1314;137482;-65
2021/11/22 07:33:37;;;;;;;13.70;9.00;;;;;;;6.89;77.46;100095.02;104442;1317;96116;-65
2021/11/22 07:36:09;;;;;;;13.70;7.60;;;;;;;6.80;77.05;100102.98;104270;1312;138986;-65
2021/11/22 07:38:41;;;;;;;14.20;7.90;;;;;;;6.74;76.96;100102.39;104093;1317;111563;-65
2021/11/22 07:41:14;;;;;;;10.20;6.40;;;;;;;6.75;77.20;100105.48;104455;1315;108448;-65
2021/11/22 07:43:47;;;;;;;8.80;6.80;;;;;;;6.79;77.20;100106.95;103264;1317;138375;-64
2021/11/22 07:46:19;;;;;;;10.80;7.60;;;;;;;6.85;77.02;100111.88;103059;1318;97892;-64
2021/11/22 07:48:53;;;;;;;8.70;7.50;;;;;;;6.91;76.92;100112.45;103001;1315;137794;-64
2021/11/22 07:51:25;;;;;;;15.00;9.50;;;;;;;6.95;76.77;100112.86;104476;1315;112510;-64
2021/11/22 07:53:57;;;;;;;10.80;6.80;;;;;;;7.02;76.85;100119.14;104266;1317;138402;-65
2021/11/22 07:56:30;;;;;;;9.40;6.70;;;;;;;7.13;76.69;100124.62;104356;1316;109021;-64
2021/11/22 07:59:02;;;;;;;9.60;6.30;;;;;;;7.23;76.22;100129.77;104461;1317;96208;-65
2021/11/22 08:01:34;;;;;;;8.30;6.00;;;;;;;7.33;76.24;100135.80;104245;1316;137562;-65
2021/11/22 08:04:12;;;;;;;8.10;5.90;;;;;;;7.46;76.21;100138.98;104451;1317;112508;-66
2021/11/22 08:06:48;;;;;;;7.50;5.60;;;;;;;7.57;75.64;100141.70;104295;1317;138766;-65
2021/11/22 08:09:27;;;;;;;9.20;5.80;;;;;;;7.62;75.30;100145.39;104189;1317;281131;-64
2021/11/22 08:12:25;;;;;;;7.30;5.50;;;;;;;7.64;75.07;100150.35;104215;1316;139888;-65
2021/11/22 08:15:00;;;;;;;6.90;5.80;;;;;;;7.70;75.04;100152.65;104452;1315;96057;-65
2021/11/22 08:17:32;;;;;;;8.00;5.20;;;;;;;7.72;74.91;100153.13;104491;1315;113574;-65
2021/11/22 08:20:08;;;;;;;8.10;6.10;;;;;;;7.72;74.80;100161.09;104159;1316;138317;-65
2021/11/22 08:22:40;;;;;;;9.10;6.20;;;;;;;7.75;74.85;100169.15;104403;1315;108966;-65
2021/11/22 08:25:13;;;;;;;12.40;8.20;;;;;;;7.74;74.49;100171.27;103354;1316;137915;-67
2021/11/22 08:27:46;;;;;;;15.30;10.50;;;;;;;7.74;74.81;100175.95;104512;1317;96041;-64
2021/11/22 08:30:20;;;;;;;19.00;11.90;;;;;;;7.72;74.74;100174.59;103509;1316;138028;-64
2021/11/22 08:32:55;;;;;;;18.60;11.70;;;;;;;7.63;74.50;100176.70;103179;1317;108115;-65
2021/11/22 08:35:31;;;;;;;15.60;11.10;;;;;;;7.54;74.59;100179.30;102919;1319;110336;-65
2021/11/22 08:38:04;;;;;;;14.60;11.00;;;;;;;7.46;74.54;100181.36;104074;1317;139409;-66
2021/11/22 08:40:40;;;;;;;14.40;10.50;;;;;;;7.44;74.76;100182.95;103093;1317;98085;-65
2021/11/22 08:43:15;;;;;;;16.60;10.70;;;;;;;7.49;74.84;100183.38;102859;1317;138298;-65
2021/11/22 08:45:48;;;;;;;16.80;11.20;;;;;;;7.48;74.67;100185.99;102808;1317;109654;-65
2021/11/22 08:48:25;;;;;;;16.00;10.40;;;;;;;7.47;74.81;100189.48;102649;1317;138408;-66
2021/11/22 08:50:57;;;;;;;13.40;9.60;;;;;;;7.47;74.58;100189.30;102793;1317;97861;-66
2021/11/22 08:53:30;;;;;;;11.60;8.30;;;;;;;7.51;74.89;100189.20;102885;1316;97962;-65
2021/11/22 08:56:03;;;;;;;12.30;8.50;;;;;;;7.61;74.65;100195.27;102852;1316;137801;-65
2021/11/22 08:58:35;;;;;;;10.60;8.30;;;;;;;7.72;74.45;100197.09;102915;1317;108912;-64
2021/11/22 09:01:08;;;;;;;11.30;8.20;;;;;;;7.85;74.56;100197.66;102758;1317;138602;-65
2021/11/22 09:03:41;;;;;;;13.30;8.60;;;;;;;7.98;74.65;100194.43;104351;1315;96013;-65
2021/11/22 09:06:14;;;;;;;13.20;8.50;;;;;;;8.11;74.15;100195.89;103005;1316;138350;-65
2021/11/22 09:08:48;;;;;;;10.80;9.00;;;;;;;8.19;73.75;100198.46;103317;1317;112535;-65
2021/11/22 09:11:20;;;;;;;10.30;7.90;;;;;;;8.22;73.41;100196.32;104382;1318;106762;-65
2021/11/22 09:13:53;;;;;;;12.60;7.40;;;;;;;8.23;73.48;100199.21;104147;1316;140415;-65
2021/11/22 09:16:28;;;;;;;20.60;13.10;;;;;;;8.28;73.27;100202.44;103638;1317;97356;-65
2021/11/22 09:19:04;;;;;;;15.70;10.90;;;;;;;8.30;72.91;100204.11;102952;1317;138289;-69
2021/11/22 09:21:37;;;;;;;9.90;7.70;;;;;;;8.27;72.87;100209.37;104372;1317;111584;-66
2021/11/22 09:24:10;;;;;;;10.20;7.40;;;;;;;8.27;72.90;100215.97;103109;1324;138068;-65
2021/11/22 09:26:43;;;;;;;12.30;7.00;;;;;;;8.25;72.64;100215.47;103831;1316;107942;-65
2021/11/22 09:29:15;;;;;;;8.40;6.80;;;;;;;8.21;72.72;100217.45;104388;1318;96994;-65
2021/11/22 09:31:48;;;;;;;9.80;7.50;;;;;;;8.21;72.83;100219.71;103978;1316;137487;-65
2021/11/22 09:34:21;;;;;;;10.80;8.60;;;;;;;8.14;72.47;100219.19;103502;1317;112615;-64
2021/11/22 09:36:54;;;;;;;12.70;9.10;;;;;;;8.01;72.52;100215.14;103467;1316;138013;-66
2021/11/22 09:39:27;;;;;;;12.10;8.20;;;;;;;7.95;72.71;100216.14;104324;1313;107832;-65
2021/11/22 09:42:00;;;;;;;10.60;8.30;;;;;;;7.92;72.76;100213.63;103902;1317;138109;-66
2021/11/22 09:44:33;;;;;;;10.30;6.80;;;;;;;7.87;72.60;100218.20;103211;1317;97898;-66
2021/11/22 09:47:06;;;;;;;8.60;6.50;;;;;;;7.82;72.72;100225.94;104191;1315;112585;-64
2021/11/22 09:49:39;;;;;;;10.20;7.50;;;;;;;7.78;72.67;100226.56;103963;1317;139533;-65
2021/11/22 09:52:12;;;;;;;9.10;7.40;;;;;;;7.72;72.83;100227.02;103142;1316;108991;-67
2021/11/22 09:54:45;;;;;;;11.10;7.40;;;;;;;7.64;72.78;100229.61;102947;1317;138250;-63
2021/11/22 09:57:18;;;;;;;9.40;7.60;;;;;;;7.51;72.88;100234.02;104244;1313;96765;-64
2021/11/22 09:59:51;;;;;;;10.20;7.40;;;;;;;7.46;73.30;100234.30;103498;1316;111555;-64
2021/11/22 10:02:43;;;;;;;10.10;8.00;;;;;;;7.42;73.13;100235.08;103257;1317;138951;-64
2021/11/22 10:05:29;;;;;;;12.80;7.40;;;;;;;7.40;73.29;100237.03;103055;1316;108785;-66
2021/11/22 10:08:05;;;;;;;10.00;6.10;;;;;;;7.35;73.25;100235.73;103512;1317;138174;-64
2021/11/22 10:10:42;;;;;;;9.60;5.90;;;;;;;7.21;72.78;100234.09;103404;1316;97985;-64
2021/11/22 10:13:27;;;;;;;9.60;6.90;;;;;;;7.08;73.26;100239.00;103127;1317;138576;-64
2021/11/22 10:16:02;;;;;;;9.10;6.70;;;;;;;7.01;73.47;100243.80;104442;1315;108987;-64
2021/11/22 10:18:39;;;;;;;10.90;7.80;;;;;;;7.05;73.75;100243.91;104214;1318;141641;-64
2021/11/22 10:21:10;;;;;;;;;;;;;;;7.11;73.82;100247.92;104330;1317;96128;-66
2021/11/22 10:23:45;;;;;;;14.80;9.70;;;;;;;7.17;74.00;100243.33;103974;1316;95991;-64
2021/11/22 10:26:19;;;;;;;9.30;7.20;;;;;;;7.25;74.02;100241.63;103236;1317;138335;-64
2021/11/22 10:28:55;;;;;;;10.80;7.40;;;;;;;7.22;73.13;100247.58;104342;1317;108927;-64
2021/11/22 10:31:29;;;;;;;11.60;7.10;;;;;;;7.16;73.07;100250.43;104191;1317;139412;-64
2021/11/22 10:34:02;;;;;;;9.60;5.80;;;;;;;7.12;73.00;100248.94;103177;1317;97869;-63
2021/11/22 10:36:37;;;;;;;9.30;5.80;;;;;;;7.21;73.21;100249.48;102770;1316;138421;-64
2021/11/22 10:39:11;;;;;;;7.70;4.80;;;;;;;7.39;73.20;100247.95;103148;1315;112182;-65
2021/11/22 10:41:46;;;;;;;8.20;4.30;;;;;;;7.57;72.83;100246.89;104374;1316;106132;-65
2021/11/22 10:44:19;;;;;;;11.50;5.80;;;;;;;7.78;72.57;100247.48;104296;1318;137903;-65
2021/11/22 10:46:54;;;;;;;10.90;6.90;;;;;;;7.94;71.76;100251.14;103388;1316;98003;-64
2021/11/22 10:49:38;;;;;;;6.40;5.40;;;;;;;8.04;71.33;100251.96;103124;1316;137968;-65
2021/11/22 10:52:16;;;;;;;6.00;4.60;;;;;;;8.17;70.97;100260.52;104347;1317;112764;-65
2021/11/22 10:55:01;;;;;;;6.50;4.20;;;;;;;8.26;70.41;100258.41;103730;1312;138583;-65
2021/11/22 10:57:38;;;;;;;5.00;4.20;;;;;;;8.32;70.24;100264.52;103301;1317;107931;-64
2021/11/22 11:00:29;;;;;;;5.70;4.60;;;;;;;8.34;70.23;100269.33;104314;1315;138894;-65
2021/11/22 11:03:09;;;;;;;6.30;4.70;;;;;;;8.35;69.92;100274.86;104380;1315;98438;-64
2021/11/22 11:05:42;;;;;;;9.70;5.10;;;;;;;8.35;69.65;100274.33;103944;1317;112590;-65
2021/11/22 11:08:15;;;;;;;9.00;5.20;;;;;;;8.33;69.47;100277.84;104232;1317;138191;-64
2021/11/22 11:10:50;;;;;;;6.30;4.60;;;;;;;8.29;69.07;100282.77;104456;1316;107997;-63
2021/11/22 11:13:50;;;;;;;10.30;4.90;;;;;;;8.19;68.78;100284.37;103765;1317;138495;-65
2021/11/22 11:16:23;;;;;;;8.50;5.80;;;;;;;8.10;68.92;100283.89;104295;1316;96004;-64
2021/11/22 11:19:00;;;;;;;10.80;6.20;;;;;;;8.04;68.92;100282.96;104259;1316;138017;-64
2021/11/22 11:21:34;;;;;;;8.50;6.40;;;;;;;7.96;68.77;100282.81;104424;1316;107997;-64
2021/11/22 11:24:08;;;;;;;7.50;6.00;;;;;;;7.82;68.75;100284.80;103348;1316;137868;-65
2021/11/22 11:26:43;;;;;;;11.50;7.60;;;;;;;7.71;68.89;100289.54;103800;1317;96330;-64
2021/11/22 11:29:16;;;;;;;8.80;6.40;;;;;;;7.61;69.14;100282.46;103069;1317;97844;-66
2021/11/22 11:31:49;;;;;;;15.90;9.60;;;;;;;7.52;69.19;100284.88;104339;1315;137970;-65
2021/11/22 11:34:28;;;;;;;8.40;6.00;;;;;;;7.46;69.42;100287.41;104435;1316;107260;-65
2021/11/22 11:37:31;;;;;;;10.20;6.70;;;;;;;7.46;69.93;100284.48;103474;1315;138687;-64
2021/11/22 11:40:41;;;;;;;12.20;6.80;;;;;;;7.51;70.08;100283.67;103172;1317;97946;-63
2021/11/22 11:43:43;;;;;;;10.50;7.20;;;;;;;7.49;70.07;100286.14;102994;1317;138171;-65